createdAt,value
2022-12-08T00:02:44.685Z,19.20
2022-12-08T00:08:07.424Z,20.35
2022-12-08T00:13:11.051Z,19.05
2022-12-08T00:18:14.950Z,14.35
2022-12-08T00:23:20.086Z,16.45
2022-12-08T00:28:23.768Z,14.65
2022-12-08T00:33:29.194Z,11.48
2022-12-08T00:38:34.336Z,13.77
2022-12-08T00:43:38.058Z,11.73
2022-12-08T00:48:41.739Z,12.63
2022-12-08T00:53:46.837Z,14.07
2022-12-08T00:58:50.658Z,13.93
2022-12-08T01:03:54.584Z,12.32
2022-12-08T01:08:59.804Z,12.93
2022-12-08T01:14:03.723Z,13.07
2022-12-08T01:19:07.467Z,12.50
2022-12-08T01:24:16.079Z,11.43
2022-12-08T01:29:19.879Z,12.18
2022-12-08T01:34:23.592Z,11.05
2022-12-08T01:39:28.764Z,13.48
2022-12-08T01:44:57.260Z,13.68
2022-12-08T01:50:02.510Z,9.95
2022-12-08T01:55:15.883Z,11.30
2022-12-08T02:00:22.789Z,11.43
2022-12-08T02:05:31.683Z,11.70
2022-12-08T02:10:40.697Z,10.05
2022-12-08T02:15:59.260Z,9.45
2022-12-08T02:21:10.258Z,9.23
2022-12-08T02:27:34.598Z,9.90
2022-12-08T02:33:56.616Z,9.05
2022-12-08T02:39:16.275Z,7.38
2022-12-08T02:50:04.674Z,9.68
2022-12-08T02:55:26.005Z,8.82
2022-12-08T03:00:38.669Z,9.57
2022-12-08T03:06:02.025Z,10.73
2022-12-08T03:11:20.437Z,8.15
2022-12-08T03:16:28.710Z,8.95
2022-12-08T03:21:36.648Z,9.27
2022-12-08T03:26:48.551Z,8.48
2022-12-08T03:31:57.301Z,8.60
2022-12-08T03:37:03.386Z,8.07
2022-12-08T03:42:08.522Z,6.78
2022-12-08T03:47:12.218Z,10.65
2022-12-08T03:52:15.923Z,7.60
2022-12-08T03:57:21.744Z,8.55
2022-12-08T04:02:25.533Z,8.65
2022-12-08T04:07:29.202Z,7.13
2022-12-08T04:12:34.170Z,6.57
2022-12-08T04:17:37.901Z,8.15
2022-12-08T04:22:41.646Z,6.05
2022-12-08T04:27:46.935Z,6.82
2022-12-08T04:32:50.770Z,7.70
2022-12-08T04:37:54.428Z,6.95
2022-12-08T04:42:59.477Z,7.22
2022-12-08T04:48:03.697Z,6.45
2022-12-08T04:53:07.359Z,6.05
2022-12-08T04:58:14.908Z,6.43
2022-12-08T05:03:22.654Z,8.30
2022-12-08T05:08:30.831Z,6.50
2022-12-08T05:13:35.973Z,8.48
2022-12-08T05:18:40.357Z,6.97
2022-12-08T05:23:44.024Z,6.13
2022-12-08T05:28:49.022Z,8.52
2022-12-08T05:33:54.007Z,6.97
2022-12-08T05:38:59.407Z,7.82
2022-12-08T05:44:04.609Z,6.15
2022-12-08T05:49:08.338Z,9.02
2022-12-08T05:54:12.223Z,5.70
2022-12-08T05:59:17.787Z,5.50
2022-12-08T06:04:22.182Z,5.95
2022-12-08T06:09:26.435Z,6.28
2022-12-08T06:14:31.429Z,6.13
2022-12-08T06:19:35.036Z,8.35
2022-12-08T06:24:38.940Z,6.85
2022-12-08T06:29:44.062Z,5.70
2022-12-08T06:34:48.055Z,7.15
2022-12-08T06:39:51.923Z,4.78
2022-12-08T06:44:57.024Z,6.32
2022-12-08T06:50:01.494Z,5.13
2022-12-08T06:55:06.485Z,6.72
2022-12-08T07:00:14.247Z,7.38
2022-12-08T07:10:21.711Z,5.38
2022-12-08T07:15:27.115Z,6.68
2022-12-08T07:20:30.791Z,9.30
2022-12-08T07:25:34.533Z,6.53
2022-12-08T07:30:39.853Z,5.50
2022-12-08T07:35:49.041Z,5.60
2022-12-08T07:40:54.170Z,5.00
2022-12-08T07:45:59.964Z,5.20
2022-12-08T07:51:05.716Z,6.43
2022-12-08T07:56:11.723Z,4.95
2022-12-08T08:01:29.902Z,4.45
2022-12-08T08:06:34.862Z,5.72
2022-12-08T08:11:38.994Z,8.05
2022-12-08T08:16:46.881Z,5.28
2022-12-08T08:21:50.715Z,4.13
2022-12-08T08:26:55.378Z,4.72
2022-12-08T08:32:01.787Z,5.22
2022-12-08T08:37:05.691Z,6.18
2022-12-08T08:42:09.438Z,5.05
2022-12-08T08:47:14.533Z,4.85
2022-12-08T08:52:18.235Z,4.20
2022-12-08T08:57:25.477Z,10.55
2022-12-08T09:02:31.137Z,15.43
2022-12-08T09:07:35.101Z,10.90
2022-12-08T09:12:38.783Z,12.00
2022-12-08T09:17:43.789Z,14.38
2022-12-08T09:22:47.604Z,13.68
2022-12-08T09:27:51.336Z,10.25
2022-12-08T09:32:56.537Z,11.13
2022-12-08T09:38:00.166Z,11.55
2022-12-08T09:43:12.962Z,15.23
2022-12-08T09:48:25.549Z,12.82
2022-12-08T09:53:36.787Z,19.80
2022-12-08T09:58:52.813Z,33.25
2022-12-08T10:03:59.207Z,28.58
2022-12-08T10:09:25.013Z,43.05
2022-12-08T10:14:37.521Z,30.30
2022-12-08T10:19:45.576Z,24.42
2022-12-08T10:24:59.694Z,25.08
2022-12-08T10:30:03.835Z,18.63
2022-12-08T10:35:13.025Z,22.20
2022-12-08T10:40:19.864Z,22.83
2022-12-08T10:45:30.590Z,19.83
2022-12-08T10:50:38.364Z,16.88
2022-12-08T10:55:46.530Z,19.35
2022-12-08T11:00:53.455Z,19.35
2022-12-08T11:06:14.001Z,20.50
2022-12-08T11:11:20.338Z,21.40
2022-12-08T11:16:26.880Z,18.67
2022-12-08T11:21:38.736Z,28.55
2022-12-08T11:26:55.778Z,51.83
2022-12-08T11:32:05.252Z,56.43
2022-12-08T11:37:18.963Z,51.22
2022-12-08T11:42:27.842Z,53.55
2022-12-08T11:47:41.868Z,56.38
2022-12-08T11:52:52.007Z,60.13
2022-12-08T11:57:59.266Z,62.10
2022-12-08T12:03:10.294Z,62.67
2022-12-08T12:08:37.724Z,60.63
2022-12-08T12:14:04.500Z,63.83
2022-12-08T12:19:15.800Z,65.63
2022-12-08T12:24:29.323Z,63.83
2022-12-08T12:29:38.506Z,72.10
2022-12-08T12:34:52.317Z,66.53
2022-12-08T12:40:04.059Z,64.60
2022-12-08T12:45:30.886Z,63.38
2022-12-08T12:50:46.034Z,62.35
2022-12-08T12:55:57.342Z,60.15
2022-12-08T13:01:55.739Z,54.72
2022-12-08T13:07:00.031Z,52.25
2022-12-08T13:12:21.064Z,53.60
2022-12-08T13:17:30.845Z,47.60
2022-12-08T13:23:26.777Z,46.47
2022-12-08T13:33:51.780Z,39.03
2022-12-08T13:39:01.108Z,38.80
2022-12-08T14:01:04.326Z,35.05
2022-12-08T14:06:15.317Z,34.97
2022-12-08T14:11:37.663Z,31.40
2022-12-08T14:16:50.310Z,33.03
2022-12-08T14:21:59.743Z,32.63
2022-12-08T14:27:07.881Z,31.48
2022-12-08T14:32:30.287Z,30.60
2022-12-08T14:37:38.235Z,28.52
2022-12-08T14:42:48.440Z,29.25
2022-12-08T14:47:53.457Z,29.52
2022-12-08T14:52:57.298Z,29.35
2022-12-08T14:58:01.182Z,28.67
2022-12-08T15:03:09.075Z,27.27
2022-12-08T15:13:30.120Z,24.77
2022-12-08T15:18:40.783Z,26.98
2022-12-08T15:23:47.667Z,28.15
2022-12-08T15:28:51.996Z,24.02
2022-12-08T15:33:57.293Z,22.33
2022-12-08T15:39:01.139Z,25.08
2022-12-08T15:44:05.445Z,22.42
2022-12-08T15:49:18.971Z,21.27
2022-12-08T15:54:24.118Z,24.02
2022-12-08T15:59:28.004Z,20.13
2022-12-08T16:05:25.312Z,19.98
2022-12-08T16:09:58.960Z,20.23
2022-12-08T16:20:58.874Z,18.63
2022-12-08T16:26:18.855Z,17.90
2022-12-08T16:31:21.416Z,15.80
2022-12-08T16:36:28.192Z,15.05
2022-12-08T16:41:49.465Z,13.60
2022-12-08T16:46:53.331Z,22.40
2022-12-08T16:51:58.908Z,27.77
2022-12-08T16:57:02.634Z,21.75
2022-12-08T17:02:06.699Z,21.02
2022-12-08T17:07:11.830Z,22.20
2022-12-08T17:12:15.630Z,16.73
2022-12-08T17:17:19.502Z,19.30
2022-12-08T17:22:24.683Z,21.10
2022-12-08T17:27:29.404Z,15.20
2022-12-08T17:32:33.135Z,14.88
2022-12-08T17:37:38.323Z,24.65
2022-12-08T17:42:42.484Z,20.33
2022-12-08T17:47:46.250Z,13.15
2022-12-08T17:52:53.235Z,15.40
2022-12-08T17:57:56.897Z,11.20
2022-12-08T18:03:00.849Z,11.82
2022-12-08T18:08:06.109Z,16.02
2022-12-08T18:13:10.631Z,10.75
2022-12-08T18:18:14.428Z,10.98
2022-12-08T18:23:19.959Z,9.55
2022-12-08T18:28:23.828Z,8.40
2022-12-08T18:33:27.999Z,9.75
2022-12-08T18:38:33.119Z,10.05
2022-12-08T18:43:37.369Z,8.73
2022-12-08T18:48:44.056Z,9.40
2022-12-08T18:53:49.795Z,9.52
2022-12-08T18:58:58.468Z,9.77
2022-12-08T19:09:34.304Z,11.57
2022-12-08T19:14:38.297Z,9.43
2022-12-08T19:19:42.241Z,8.88
2022-12-08T19:24:47.486Z,7.70
2022-12-08T19:29:51.261Z,9.10
2022-12-08T19:34:55.205Z,6.97
2022-12-08T19:40:17.826Z,9.00
2022-12-08T19:45:23.895Z,6.88
2022-12-08T19:50:40.480Z,7.32
2022-12-08T19:55:45.754Z,7.97
2022-12-08T20:00:49.577Z,7.07
2022-12-08T20:05:54.023Z,7.53
2022-12-08T20:10:59.486Z,7.25
2022-12-08T20:16:03.363Z,6.00
2022-12-08T20:21:08.430Z,5.95
2022-12-08T20:26:14.903Z,5.07
2022-12-08T20:31:21.186Z,7.43
2022-12-08T20:36:25.507Z,10.32
2022-12-08T20:41:34.857Z,5.65
2022-12-08T20:46:46.265Z,5.43
2022-12-08T20:51:52.915Z,6.10
2022-12-08T20:56:58.185Z,7.40
2022-12-08T21:02:02.629Z,5.45
2022-12-08T21:07:08.898Z,7.25
2022-12-08T21:12:14.215Z,6.35
2022-12-08T21:17:18.141Z,5.57
2022-12-08T21:22:22.092Z,6.70
2022-12-08T21:27:27.268Z,6.63
2022-12-08T21:32:31.066Z,6.15
2022-12-08T21:37:35.214Z,4.97
2022-12-08T21:42:46.281Z,6.72
2022-12-08T21:47:51.571Z,5.63
2022-12-08T21:52:55.334Z,5.78
2022-12-08T21:58:01.012Z,5.80
2022-12-08T22:03:05.574Z,5.25
2022-12-08T22:08:09.854Z,6.10
2022-12-08T22:13:15.226Z,5.68
2022-12-08T22:18:19.402Z,5.65
2022-12-08T22:23:23.870Z,6.82
2022-12-08T22:28:33.604Z,6.88
2022-12-08T22:33:37.552Z,6.78
2022-12-08T22:38:41.694Z,8.90
2022-12-08T22:43:47.968Z,8.02
2022-12-08T22:48:53.067Z,11.15
2022-12-08T22:53:56.847Z,10.55
2022-12-08T22:59:01.966Z,6.72
2022-12-08T23:04:06.559Z,7.85
2022-12-08T23:09:12.070Z,8.40
2022-12-08T23:14:17.766Z,10.32
2022-12-08T23:19:21.505Z,8.52
2022-12-08T23:24:25.442Z,14.75
2022-12-08T23:29:30.653Z,9.77
2022-12-08T23:34:34.471Z,10.57
2022-12-08T23:39:38.198Z,12.05
2022-12-08T23:44:43.393Z,9.05
2022-12-08T23:49:47.038Z,7.70
2022-12-08T23:54:51.681Z,10.25
2022-12-08T23:59:56.774Z,11.38
